Aérodrome :
LOGIN :

S'inscrire | Disclaimer

   EN    FR    IT 

 










Légende :    VFR   VFR Marginal   IFR   IFR Intensif   IFR Très Intensif
Visi : 
Plafond : 
>= 8 km
>= 3000ft
5 à 8 km
1000 à 3000 ft
1500m à 5 km
500 à 1000 ft
800 à 1500m
200 à 500 ft
< 800m
< 200 ft
Symboles :   Orages  Brouillard  Fortes neiges  Fortes précipitations  Vent > 20 kt
SIGMETs :   Divers  Orages  Givrage  Turbulence  Onde Orograph.  Cendres Volcan.







- Altitude de l'aérodrome : 489 ft
- Code IATA : GDN


EPGD - Gdansk

DERNIER METAR :
  • 270730Z 24009KT 6000 -RA FEW002 SCT005 BKN008 14/13 Q1005 RERA

METARs EXPIRÉS :
  • 270700Z 23009KT 9999 BKN009 BKN047 14/12 Q1005
  • 270630Z 22010KT 9999 -RA FEW003 BKN020 14/12 Q1005
  • 270600Z 22011KT 9999 BKN019 15/11 Q1005
  • 270530Z 23012KT 9999 FEW022 15/10 Q1004
  • 270500Z 22009KT 9999 FEW023 BKN048 15/10 Q1004

TAF TAF EPGD
Valide du 27 à 06h jusqu'au 28 à 06h UTC


270530Z 2706/2806 22010KT 9999 SCT030
PROB40
TEMPO 2706/2709 -RA BKN007
TEMPO 2709/2715 25015G28KT -SHRA BKN015CB
BECMG 2715/2717 VRB02KT
PROB40
TEMPO 2800/2806 3000 -RA BR BKN004
Pas de NOTAMs connus pour ce terrain.



MET'MAP, la Météo Aéronautique d'un coup d'oeil ! - Copyright ORBIFLY Décembre 2007 - Disclaimer

ORBIFLY MET'MAP TEAM :

Programmation & Développement : Alexandra Zaïnal
Conception & Développement : Baudouin d'Aumeries
Co-Programmation & Développement : Marc-Olivier Méhu
Soutien technique & logistique : Manuel Goepfert

Contact : metmap@orbifly.com




SOURCES & CREDITS :

   NOAA